sensor_id;sensor_type;location;lat;lon;timestamp;pressure;altitude;pressure_sealevel;temperature;humidity
81704;BME280;71117;52.352;4.808;2024-03-17T00:00:50;102406.97;;;5.86;86.50
81704;BME280;71117;52.352;4.808;2024-03-17T00:03:15;102407.78;;;5.84;86.65
81704;BME280;71117;52.352;4.808;2024-03-17T00:05:41;102404.78;;;5.78;86.80
81704;BME280;71117;52.352;4.808;2024-03-17T00:08:06;102408.84;;;5.73;86.64
81704;BME280;71117;52.352;4.808;2024-03-17T00:10:31;102402.56;;;5.71;86.50
81704;BME280;71117;52.352;4.808;2024-03-17T00:12:57;102405.47;;;5.76;86.15
81704;BME280;71117;52.352;4.808;2024-03-17T00:15:23;102397.69;;;5.77;85.66
81704;BME280;71117;52.352;4.808;2024-03-17T00:17:49;102404.19;;;5.69;86.06
81704;BME280;71117;52.352;4.808;2024-03-17T00:20:14;102397.03;;;5.67;86.91
81704;BME280;71117;52.352;4.808;2024-03-17T00:22:49;102396.25;;;5.68;87.14
81704;BME280;71117;52.352;4.808;2024-03-17T00:25:16;102393.88;;;5.72;86.75
81704;BME280;71117;52.352;4.808;2024-03-17T00:27:44;102392.91;;;5.70;87.51
81704;BME280;71117;52.352;4.808;2024-03-17T00:30:10;102398.34;;;5.73;87.43
81704;BME280;71117;52.352;4.808;2024-03-17T00:32:40;102389.59;;;5.73;87.55
81704;BME280;71117;52.352;4.808;2024-03-17T00:35:10;102387.34;;;5.79;87.56
81704;BME280;71117;52.352;4.808;2024-03-17T00:37:39;102380.38;;;5.79;87.79
81704;BME280;71117;52.352;4.808;2024-03-17T00:40:04;102384.19;;;5.84;86.86
81704;BME280;71117;52.352;4.808;2024-03-17T00:42:32;102386.16;;;5.89;87.25
81704;BME280;71117;52.352;4.808;2024-03-17T00:44:58;102384.69;;;5.92;86.49
81704;BME280;71117;52.352;4.808;2024-03-17T00:47:25;102383.16;;;5.96;86.64
81704;BME280;71117;52.352;4.808;2024-03-17T00:49:50;102379.28;;;6.04;85.90
81704;BME280;71117;52.352;4.808;2024-03-17T00:52:16;102385.63;;;6.07;85.80
81704;BME280;71117;52.352;4.808;2024-03-17T00:54:46;102384.97;;;6.12;85.89
81704;BME280;71117;52.352;4.808;2024-03-17T00:57:12;102381.56;;;6.13;86.19
81704;BME280;71117;52.352;4.808;2024-03-17T00:59:38;102378.03;;;6.12;85.48
81704;BME280;71117;52.352;4.808;2024-03-17T01:02:04;102371.06;;;6.13;85.82
81704;BME280;71117;52.352;4.808;2024-03-17T01:04:30;102370.63;;;6.20;84.49
81704;BME280;71117;52.352;4.808;2024-03-17T01:06:58;102364.00;;;6.26;84.70
81704;BME280;71117;52.352;4.808;2024-03-17T01:09:24;102358.84;;;6.28;84.06
81704;BME280;71117;52.352;4.808;2024-03-17T01:11:50;102359.38;;;6.22;83.92
81704;BME280;71117;52.352;4.808;2024-03-17T01:14:15;102356.16;;;6.26;84.25
81704;BME280;71117;52.352;4.808;2024-03-17T01:16:40;102360.69;;;6.29;83.82
81704;BME280;71117;52.352;4.808;2024-03-17T01:19:06;102363.84;;;6.23;84.32
81704;BME280;71117;52.352;4.808;2024-03-17T01:21:31;102359.75;;;6.28;83.70
81704;BME280;71117;52.352;4.808;2024-03-17T01:23:57;102354.69;;;6.31;83.48
81704;BME280;71117;52.352;4.808;2024-03-17T01:26:22;102353.19;;;6.35;82.71
81704;BME280;71117;52.352;4.808;2024-03-17T01:28:49;102348.91;;;6.37;82.97
81704;BME280;71117;52.352;4.808;2024-03-17T01:31:14;102347.47;;;6.42;82.89
81704;BME280;71117;52.352;4.808;2024-03-17T01:33:40;102340.50;;;6.43;82.80
81704;BME280;71117;52.352;4.808;2024-03-17T01:36:05;102336.97;;;6.42;82.52
81704;BME280;71117;52.352;4.808;2024-03-17T01:38:31;102339.31;;;6.52;81.60
81704;BME280;71117;52.352;4.808;2024-03-17T01:40:57;102334.16;;;6.54;81.63
81704;BME280;71117;52.352;4.808;2024-03-17T01:43:23;102330.97;;;6.59;81.46
81704;BME280;71117;52.352;4.808;2024-03-17T01:45:48;102318.69;;;6.58;80.64
81704;BME280;71117;52.352;4.808;2024-03-17T01:48:15;102330.00;;;6.57;81.34
81704;BME280;71117;52.352;4.808;2024-03-17T01:50:42;102324.09;;;6.61;80.66
81704;BME280;71117;52.352;4.808;2024-03-17T01:53:11;102323.44;;;6.66;80.64
81704;BME280;71117;52.352;4.808;2024-03-17T01:55:40;102321.66;;;6.65;80.50
81704;BME280;71117;52.352;4.808;2024-03-17T01:58:06;102318.13;;;6.64;80.15
81704;BME280;71117;52.352;4.808;2024-03-17T02:00:40;102313.31;;;6.72;80.20
81704;BME280;71117;52.352;4.808;2024-03-17T02:03:06;102305.63;;;6.75;80.28
81704;BME280;71117;52.352;4.808;2024-03-17T02:05:34;102303.34;;;6.81;79.33
81704;BME280;71117;52.352;4.808;2024-03-17T02:08:00;102302.50;;;6.82;79.41
81704;BME280;71117;52.352;4.808;2024-03-17T02:10:26;102300.06;;;6.85;79.09
81704;BME280;71117;52.352;4.808;2024-03-17T02:12:51;102290.34;;;6.84;78.63
81704;BME280;71117;52.352;4.808;2024-03-17T02:15:17;102286.13;;;6.86;78.67
81704;BME280;71117;52.352;4.808;2024-03-17T02:17:42;102278.59;;;6.92;78.35
81704;BME280;71117;52.352;4.808;2024-03-17T02:20:08;102283.97;;;6.95;78.62
81704;BME280;71117;52.352;4.808;2024-03-17T02:22:37;102277.84;;;6.95;78.33
81704;BME280;71117;52.352;4.808;2024-03-17T02:25:02;102284.16;;;6.98;78.42
81704;BME280;71117;52.352;4.808;2024-03-17T02:27:28;102280.78;;;7.01;77.99
81704;BME280;71117;52.352;4.808;2024-03-17T02:29:54;102272.28;;;7.05;77.87
81704;BME280;71117;52.352;4.808;2024-03-17T02:32:19;102272.19;;;7.03;77.29
81704;BME280;71117;52.352;4.808;2024-03-17T02:34:47;102268.19;;;7.10;77.22
81704;BME280;71117;52.352;4.808;2024-03-17T02:37:12;102271.06;;;7.14;77.44
81704;BME280;71117;52.352;4.808;2024-03-17T02:39:38;102270.50;;;7.20;77.06
81704;BME280;71117;52.352;4.808;2024-03-17T02:42:08;102275.75;;;7.20;77.85
81704;BME280;71117;52.352;4.808;2024-03-17T02:44:36;102263.44;;;7.19;77.20
81704;BME280;71117;52.352;4.808;2024-03-17T02:47:02;102264.34;;;7.20;78.07
81704;BME280;71117;52.352;4.808;2024-03-17T02:49:29;102257.34;;;7.20;78.07
81704;BME280;71117;52.352;4.808;2024-03-17T02:52:15;102254.09;;;7.24;77.41
81704;BME280;71117;52.352;4.808;2024-03-17T02:54:40;102249.88;;;7.28;77.11
81704;BME280;71117;52.352;4.808;2024-03-17T02:57:06;102261.38;;;7.30;77.27
81704;BME280;71117;52.352;4.808;2024-03-17T02:59:32;102256.13;;;7.30;77.52
81704;BME280;71117;52.352;4.808;2024-03-17T03:01:58;102254.41;;;7.30;77.57
81704;BME280;71117;52.352;4.808;2024-03-17T03:04:24;102256.94;;;7.29;78.18
81704;BME280;71117;52.352;4.808;2024-03-17T03:06:50;102259.56;;;7.29;78.26
81704;BME280;71117;52.352;4.808;2024-03-17T03:09:15;102256.03;;;7.28;78.70
81704;BME280;71117;52.352;4.808;2024-03-17T03:11:47;102262.59;;;7.20;79.22
81704;BME280;71117;52.352;4.808;2024-03-17T03:14:12;102265.22;;;7.20;78.98
81704;BME280;71117;52.352;4.808;2024-03-17T03:16:38;102267.22;;;7.24;78.67
81704;BME280;71117;52.352;4.808;2024-03-17T03:19:03;102252.44;;;7.26;79.07
81704;BME280;71117;52.352;4.808;2024-03-17T03:21:31;102257.69;;;7.26;78.46
81704;BME280;71117;52.352;4.808;2024-03-17T03:23:56;102254.41;;;7.30;78.79
81704;BME280;71117;52.352;4.808;2024-03-17T03:26:22;102250.06;;;7.31;78.92
81704;BME280;71117;52.352;4.808;2024-03-17T03:28:48;102251.78;;;7.30;78.46
81704;BME280;71117;52.352;4.808;2024-03-17T03:31:14;102250.78;;;7.28;78.58
81704;BME280;71117;52.352;4.808;2024-03-17T03:33:43;102243.97;;;7.32;78.76
81704;BME280;71117;52.352;4.808;2024-03-17T03:36:13;102246.59;;;7.32;78.93
81704;BME280;71117;52.352;4.808;2024-03-17T03:38:39;102232.63;;;7.33;79.18
81704;BME280;71117;52.352;4.808;2024-03-17T03:41:14;102232.31;;;7.27;78.66
81704;BME280;71117;52.352;4.808;2024-03-17T03:43:40;102227.22;;;7.30;79.05
81704;BME280;71117;52.352;4.808;2024-03-17T03:46:07;102213.34;;;7.32;79.06
81704;BME280;71117;52.352;4.808;2024-03-17T03:48:32;102207.00;;;7.29;79.27
81704;BME280;71117;52.352;4.808;2024-03-17T03:51:02;102207.69;;;7.25;79.82
81704;BME280;71117;52.352;4.808;2024-03-17T03:53:28;102205.13;;;7.26;79.23
81704;BME280;71117;52.352;4.808;2024-03-17T03:55:54;102196.03;;;7.20;80.65
81704;BME280;71117;52.352;4.808;2024-03-17T03:58:19;102197.25;;;7.10;81.10
81704;BME280;71117;52.352;4.808;2024-03-17T04:00:46;102192.91;;;7.10;80.57
81704;BME280;71117;52.352;4.808;2024-03-17T04:03:11;102182.72;;;7.00;81.37
81704;BME280;71117;52.352;4.808;2024-03-17T04:05:36;102183.63;;;7.01;81.70
81704;BME280;71117;52.352;4.808;2024-03-17T04:08:02;102175.69;;;6.99;81.77
81704;BME280;71117;52.352;4.808;2024-03-17T04:10:27;102183.31;;;6.95;82.31
81704;BME280;71117;52.352;4.808;2024-03-17T04:12:53;102180.59;;;6.93;82.24
81704;BME280;71117;52.352;4.808;2024-03-17T04:15:18;102180.22;;;6.85;82.72
81704;BME280;71117;52.352;4.808;2024-03-17T04:17:44;102172.00;;;6.79;83.41
81704;BME280;71117;52.352;4.808;2024-03-17T04:20:10;102170.59;;;6.70;83.74
81704;BME280;71117;52.352;4.808;2024-03-17T04:22:38;102170.50;;;6.68;84.02
81704;BME280;71117;52.352;4.808;2024-03-17T04:25:04;102158.13;;;6.66;83.75
81704;BME280;71117;52.352;4.808;2024-03-17T04:27:30;102157.13;;;6.63;83.82
81704;BME280;71117;52.352;4.808;2024-03-17T04:29:56;102164.69;;;6.57;84.24
81704;BME280;71117;52.352;4.808;2024-03-17T04:32:22;102172.44;;;6.56;84.72
81704;BME280;71117;52.352;4.808;2024-03-17T04:34:48;102172.69;;;6.60;84.20
81704;BME280;71117;52.352;4.808;2024-03-17T04:37:14;102175.91;;;6.71;83.35
81704;BME280;71117;52.352;4.808;2024-03-17T04:39:43;102176.31;;;6.79;83.59
81704;BME280;71117;52.352;4.808;2024-03-17T04:42:10;102172.78;;;6.78;83.52
81704;BME280;71117;52.352;4.808;2024-03-17T04:44:35;102179.94;;;6.81;83.59
81704;BME280;71117;52.352;4.808;2024-03-17T04:47:01;102174.78;;;6.82;83.25
81704;BME280;71117;52.352;4.808;2024-03-17T04:49:27;102172.34;;;6.85;83.38
81704;BME280;71117;52.352;4.808;2024-03-17T04:51:52;102166.75;;;6.79;83.51
81704;BME280;71117;52.352;4.808;2024-03-17T04:54:18;102157.38;;;6.84;83.04
81704;BME280;71117;52.352;4.808;2024-03-17T04:56:43;102166.19;;;6.85;83.15
81704;BME280;71117;52.352;4.808;2024-03-17T04:59:09;102165.09;;;6.81;83.05
81704;BME280;71117;52.352;4.808;2024-03-17T05:01:34;102171.25;;;6.82;82.91
81704;BME280;71117;52.352;4.808;2024-03-17T05:04:03;102163.31;;;6.80;83.19
81704;BME280;71117;52.352;4.808;2024-03-17T05:06:29;102163.88;;;6.75;83.59
81704;BME280;71117;52.352;4.808;2024-03-17T05:08:54;102166.06;;;6.83;82.77
81704;BME280;71117;52.352;4.808;2024-03-17T05:11:20;102159.09;;;6.84;82.98
81704;BME280;71117;52.352;4.808;2024-03-17T05:13:45;102160.00;;;6.84;83.02
81704;BME280;71117;52.352;4.808;2024-03-17T05:16:11;102153.69;;;6.81;82.71
81704;BME280;71117;52.352;4.808;2024-03-17T05:18:38;102159.34;;;6.72;83.58
81704;BME280;71117;52.352;4.808;2024-03-17T05:21:05;102159.53;;;6.75;83.06
81704;BME280;71117;52.352;4.808;2024-03-17T05:23:35;102155.16;;;6.76;83.10
81704;BME280;71117;52.352;4.808;2024-03-17T05:26:01;102158.06;;;6.80;83.00
81704;BME280;71117;52.352;4.808;2024-03-17T05:28:28;102158.94;;;6.81;82.76
81704;BME280;71117;52.352;4.808;2024-03-17T05:30:54;102160.09;;;6.86;82.85
81704;BME280;71117;52.352;4.808;2024-03-17T05:33:23;102159.28;;;6.87;82.52
81704;BME280;71117;52.352;4.808;2024-03-17T05:38:19;102163.13;;;6.94;82.16
81704;BME280;71117;52.352;4.808;2024-03-17T05:40:58;102165.81;;;6.95;82.26
81704;BME280;71117;52.352;4.808;2024-03-17T05:43:30;102166.72;;;6.96;82.76
81704;BME280;71117;52.352;4.808;2024-03-17T05:46:00;102165.81;;;6.95;82.45
81704;BME280;71117;52.352;4.808;2024-03-17T05:48:35;102169.34;;;6.96;82.71
81704;BME280;71117;52.352;4.808;2024-03-17T05:51:04;102171.25;;;6.98;82.20
81704;BME280;71117;52.352;4.808;2024-03-17T05:53:30;102161.56;;;6.97;82.94
81704;BME280;71117;52.352;4.808;2024-03-17T05:55:59;102172.91;;;6.96;82.96
81704;BME280;71117;52.352;4.808;2024-03-17T05:58:28;102165.94;;;6.97;82.42
81704;BME280;71117;52.352;4.808;2024-03-17T06:00:55;102166.84;;;6.97;82.93
81704;BME280;71117;52.352;4.808;2024-03-17T06:03:20;102163.63;;;7.03;83.07
81704;BME280;71117;52.352;4.808;2024-03-17T06:05:47;102162.28;;;7.11;82.32
81704;BME280;71117;52.352;4.808;2024-03-17T06:08:13;102166.97;;;7.16;81.99
81704;BME280;71117;52.352;4.808;2024-03-17T06:10:43;102167.22;;;7.21;81.78
81704;BME280;71117;52.352;4.808;2024-03-17T06:13:09;102164.75;;;7.24;81.39
81704;BME280;71117;52.352;4.808;2024-03-17T06:15:39;102167.59;;;7.29;81.44
81704;BME280;71117;52.352;4.808;2024-03-17T06:18:04;102161.63;;;7.31;81.88
81704;BME280;71117;52.352;4.808;2024-03-17T06:20:31;102161.75;;;7.34;81.24
81704;BME280;71117;52.352;4.808;2024-03-17T06:22:57;102159.13;;;7.34;80.90
81704;BME280;71117;52.352;4.808;2024-03-17T06:25:22;102159.69;;;7.45;80.69
81704;BME280;71117;52.352;4.808;2024-03-17T06:27:51;102157.16;;;7.47;81.47
81704;BME280;71117;52.352;4.808;2024-03-17T06:30:18;102160.84;;;7.50;80.74
81704;BME280;71117;52.352;4.808;2024-03-17T06:32:46;102154.75;;;7.51;81.09
81704;BME280;71117;52.352;4.808;2024-03-17T06:35:13;102151.47;;;7.55;80.46
81704;BME280;71117;52.352;4.808;2024-03-17T06:37:43;102152.78;;;7.63;79.70
81704;BME280;71117;52.352;4.808;2024-03-17T06:40:13;102145.84;;;7.65;79.45
81704;BME280;71117;52.352;4.808;2024-03-17T06:42:38;102143.59;;;7.73;79.11
81704;BME280;71117;52.352;4.808;2024-03-17T06:45:05;102146.75;;;7.84;79.21
81704;BME280;71117;52.352;4.808;2024-03-17T06:47:30;102146.75;;;7.84;78.94
81704;BME280;71117;52.352;4.808;2024-03-17T06:49:55;102142.56;;;7.87;78.47
81704;BME280;71117;52.352;4.808;2024-03-17T06:52:21;102148.72;;;7.88;79.08
81704;BME280;71117;52.352;4.808;2024-03-17T06:54:49;102149.84;;;7.93;78.73
81704;BME280;71117;52.352;4.808;2024-03-17T06:57:15;102149.84;;;7.93;78.75
81704;BME280;71117;52.352;4.808;2024-03-17T06:59:41;102139.88;;;8.04;78.48
81704;BME280;71117;52.352;4.808;2024-03-17T07:02:07;102144.59;;;8.11;78.38
81704;BME280;71117;52.352;4.808;2024-03-17T07:04:32;102151.41;;;8.07;77.64
81704;BME280;71117;52.352;4.808;2024-03-17T07:06:57;102150.69;;;8.10;78.20
81704;BME280;71117;52.352;4.808;2024-03-17T07:09:23;102153.53;;;8.14;78.16
81704;BME280;71117;52.352;4.808;2024-03-17T07:11:49;102151.88;;;8.16;78.06
81704;BME280;71117;52.352;4.808;2024-03-17T07:14:14;102150.75;;;8.11;78.44
81704;BME280;71117;52.352;4.808;2024-03-17T07:16:40;102147.13;;;8.27;77.77
81704;BME280;71117;52.352;4.808;2024-03-17T07:19:05;102141.31;;;8.34;77.38
81704;BME280;71117;52.352;4.808;2024-03-17T07:21:30;102151.72;;;8.49;77.08
81704;BME280;71117;52.352;4.808;2024-03-17T07:23:59;102146.69;;;8.54;76.74
81704;BME280;71117;52.352;4.808;2024-03-17T07:26:29;102148.41;;;8.53;77.53
81704;BME280;71117;52.352;4.808;2024-03-17T07:28:54;102136.22;;;8.74;76.42
81704;BME280;71117;52.352;4.808;2024-03-17T07:31:20;102134.34;;;8.91;75.74
81704;BME280;71117;52.352;4.808;2024-03-17T07:33:45;102133.34;;;9.09;75.38
81704;BME280;71117;52.352;4.808;2024-03-17T07:36:10;102134.34;;;9.11;74.63
81704;BME280;71117;52.352;4.808;2024-03-17T07:38:36;102131.09;;;9.16;75.63
81704;BME280;71117;52.352;4.808;2024-03-17T07:41:06;102131.66;;;9.30;74.90
81704;BME280;71117;52.352;4.808;2024-03-17T07:43:33;102143.38;;;9.37;74.21
81704;BME280;71117;52.352;4.808;2024-03-17T07:46:10;102148.69;;;9.17;74.38
81704;BME280;71117;52.352;4.808;2024-03-17T07:48:40;102138.63;;;9.28;74.59
81704;BME280;71117;52.352;4.808;2024-03-17T07:51:08;102148.00;;;9.21;75.34
81704;BME280;71117;52.352;4.808;2024-03-17T07:53:34;102143.75;;;9.25;75.34
81704;BME280;71117;52.352;4.808;2024-03-17T07:56:05;102153.69;;;9.11;75.48
81704;BME280;71117;52.352;4.808;2024-03-17T07:58:32;102146.75;;;9.13;75.95
81704;BME280;71117;52.352;4.808;2024-03-17T08:01:09;102150.28;;;9.14;75.77
81704;BME280;71117;52.352;4.808;2024-03-17T08:03:36;102154.84;;;9.18;75.94
81704;BME280;71117;52.352;4.808;2024-03-17T08:06:06;102144.56;;;9.24;75.61
81704;BME280;71117;52.352;4.808;2024-03-17T08:08:32;102143.47;;;9.38;75.77
81704;BME280;71117;52.352;4.808;2024-03-17T08:10:57;102152.13;;;9.36;75.30
81704;BME280;71117;52.352;4.808;2024-03-17T08:13:23;102147.56;;;9.52;74.54
81704;BME280;71117;52.352;4.808;2024-03-17T08:15:56;102143.34;;;9.56;74.45
81704;BME280;71117;52.352;4.808;2024-03-17T08:18:23;102150.44;;;9.78;73.55
81704;BME280;71117;52.352;4.808;2024-03-17T08:20:48;102147.44;;;9.91;73.49
81704;BME280;71117;52.352;4.808;2024-03-17T08:23:14;102143.41;;;9.99;72.89
81704;BME280;71117;52.352;4.808;2024-03-17T08:25:39;102150.41;;;9.99;72.08
81704;BME280;71117;52.352;4.808;2024-03-17T08:28:05;102143.31;;;9.98;73.17
81704;BME280;71117;52.352;4.808;2024-03-17T08:30:32;102141.31;;;10.13;71.91
81704;BME280;71117;52.352;4.808;2024-03-17T08:32:57;102150.38;;;10.20;72.21
81704;BME280;71117;52.352;4.808;2024-03-17T08:35:23;102152.81;;;10.15;72.56
81704;BME280;71117;52.352;4.808;2024-03-17T08:37:48;102155.75;;;10.00;73.09
81704;BME280;71117;52.352;4.808;2024-03-17T08:40:16;102155.41;;;9.93;73.22
81704;BME280;71117;52.352;4.808;2024-03-17T08:42:41;102151.81;;;9.91;74.28
81704;BME280;71117;52.352;4.808;2024-03-17T08:45:06;102151.47;;;10.04;73.43
81704;BME280;71117;52.352;4.808;2024-03-17T08:47:33;102145.44;;;10.06;73.25
81704;BME280;71117;52.352;4.808;2024-03-17T08:49:58;102143.00;;;10.11;73.52
81704;BME280;71117;52.352;4.808;2024-03-17T08:52:32;102139.47;;;10.11;74.45
81704;BME280;71117;52.352;4.808;2024-03-17T08:54:58;102145.97;;;10.20;73.63
81704;BME280;71117;52.352;4.808;2024-03-17T08:57:24;102143.91;;;10.32;72.90
81704;BME280;71117;52.352;4.808;2024-03-17T08:59:50;102130.78;;;10.36;73.50
81704;BME280;71117;52.352;4.808;2024-03-17T09:02:18;102129.97;;;10.60;72.99
81704;BME280;71117;52.352;4.808;2024-03-17T09:04:45;102130.34;;;10.70;72.38
81704;BME280;71117;52.352;4.808;2024-03-17T09:07:10;102120.50;;;10.66;72.10
81704;BME280;71117;52.352;4.808;2024-03-17T09:09:35;102123.03;;;10.63;72.34
81704;BME280;71117;52.352;4.808;2024-03-17T09:12:01;102122.06;;;10.60;71.99
81704;BME280;71117;52.352;4.808;2024-03-17T09:14:26;102120.25;;;10.59;72.55
81704;BME280;71117;52.352;4.808;2024-03-17T09:16:51;102115.28;;;10.67;72.99
81704;BME280;71117;52.352;4.808;2024-03-17T09:19:17;102120.03;;;10.53;72.46
81704;BME280;71117;52.352;4.808;2024-03-17T09:21:42;102119.31;;;10.57;72.99
81704;BME280;71117;52.352;4.808;2024-03-17T09:24:08;102117.03;;;10.67;72.69
81704;BME280;71117;52.352;4.808;2024-03-17T09:26:34;102112.75;;;10.70;73.68
81704;BME280;71117;52.352;4.808;2024-03-17T09:29:00;102113.66;;;10.71;72.60
81704;BME280;71117;52.352;4.808;2024-03-17T09:31:25;102111.59;;;10.86;72.96
81704;BME280;71117;52.352;4.808;2024-03-17T09:33:51;102101.69;;;10.80;72.67
81704;BME280;71117;52.352;4.808;2024-03-17T09:36:16;102113.88;;;10.77;72.55
81704;BME280;71117;52.352;4.808;2024-03-17T09:38:43;102102.81;;;10.63;73.44
81704;BME280;71117;52.352;4.808;2024-03-17T09:41:30;102109.97;;;10.43;74.79
81704;BME280;71117;52.352;4.808;2024-03-17T09:43:57;102102.91;;;10.66;73.85
81704;BME280;71117;52.352;4.808;2024-03-17T09:46:24;102102.19;;;10.70;73.44
81704;BME280;71117;52.352;4.808;2024-03-17T09:48:51;102100.63;;;10.75;73.13
81704;BME280;71117;52.352;4.808;2024-03-17T09:51:24;102098.81;;;10.98;73.09
81704;BME280;71117;52.352;4.808;2024-03-17T09:53:51;102097.78;;;11.19;72.24
81704;BME280;71117;52.352;4.808;2024-03-17T09:56:18;102101.56;;;11.51;71.46
81704;BME280;71117;52.352;4.808;2024-03-17T09:58:45;102099.50;;;11.69;70.61
81704;BME280;71117;52.352;4.808;2024-03-17T10:01:10;102095.91;;;11.67;71.41
81704;BME280;71117;52.352;4.808;2024-03-17T10:03:53;102096.50;;;11.58;69.85
81704;BME280;71117;52.352;4.808;2024-03-17T10:06:25;102096.47;;;11.57;70.44
81704;BME280;71117;52.352;4.808;2024-03-17T10:08:57;102091.25;;;11.85;70.00
81704;BME280;71117;52.352;4.808;2024-03-17T10:11:25;102087.50;;;11.79;69.53
81704;BME280;71117;52.352;4.808;2024-03-17T10:14:10;102088.59;;;12.12;67.99
81704;BME280;71117;52.352;4.808;2024-03-17T10:16:37;102080.47;;;12.35;67.47
81704;BME280;71117;52.352;4.808;2024-03-17T10:21:45;102078.53;;;12.59;68.68
81704;BME280;71117;52.352;4.808;2024-03-17T10:24:20;102086.88;;;12.14;67.10
81704;BME280;71117;52.352;4.808;2024-03-17T10:26:58;102083.41;;;12.17;67.32
81704;BME280;71117;52.352;4.808;2024-03-17T10:29:28;102088.59;;;12.12;67.43
81704;BME280;71117;52.352;4.808;2024-03-17T10:31:57;102075.34;;;12.41;67.38
81704;BME280;71117;52.352;4.808;2024-03-17T10:34:24;102076.59;;;12.24;67.09
81704;BME280;71117;52.352;4.808;2024-03-17T10:36:53;102077.03;;;12.10;67.94
81704;BME280;71117;52.352;4.808;2024-03-17T10:39:30;102082.50;;;12.15;67.98
81704;BME280;71117;52.352;4.808;2024-03-17T10:42:02;102086.78;;;12.11;68.25
81704;BME280;71117;52.352;4.808;2024-03-17T10:44:29;102082.97;;;12.02;68.46
81704;BME280;71117;52.352;4.808;2024-03-17T10:46:56;102073.09;;;11.96;68.98
81704;BME280;71117;52.352;4.808;2024-03-17T10:49:30;102074.34;;;12.09;69.01
81704;BME280;71117;52.352;4.808;2024-03-17T10:52:00;102065.34;;;12.32;69.27
81704;BME280;71117;52.352;4.808;2024-03-17T10:54:26;102069.22;;;12.13;68.47
81704;BME280;71117;52.352;4.808;2024-03-17T10:56:56;102067.31;;;12.09;68.86
81704;BME280;71117;52.352;4.808;2024-03-17T10:59:35;102055.09;;;12.43;68.73
81704;BME280;71117;52.352;4.808;2024-03-17T11:02:07;102052.25;;;12.67;69.19
81704;BME280;71117;52.352;4.808;2024-03-17T11:04:42;102047.06;;;12.71;67.10
81704;BME280;71117;52.352;4.808;2024-03-17T11:07:16;102056.16;;;12.50;66.58
81704;BME280;71117;52.352;4.808;2024-03-17T11:09:42;102055.19;;;12.78;67.44
81704;BME280;71117;52.352;4.808;2024-03-17T11:12:41;102055.72;;;12.64;67.33
81704;BME280;71117;52.352;4.808;2024-03-17T11:17:53;102061.09;;;12.67;67.89
81704;BME280;71117;52.352;4.808;2024-03-17T11:20:27;102054.81;;;12.64;67.76
81704;BME280;71117;52.352;4.808;2024-03-17T11:23:00;102062.03;;;12.39;69.13
81704;BME280;71117;52.352;4.808;2024-03-17T11:28:00;102057.13;;;12.52;69.58
81704;BME280;71117;52.352;4.808;2024-03-17T11:39:01;102039.91;;;13.01;67.15
81704;BME280;71117;52.352;4.808;2024-03-17T11:47:05;102020.75;;;13.44;66.71
81704;BME280;71117;52.352;4.808;2024-03-17T11:49:34;102019.97;;;13.48;65.98
81704;BME280;71117;52.352;4.808;2024-03-17T11:52:05;102024.91;;;13.34;66.16
81704;BME280;71117;52.352;4.808;2024-03-17T11:54:34;102016.94;;;13.33;66.85
81704;BME280;71117;52.352;4.808;2024-03-17T11:57:05;102011.13;;;13.47;66.33
81704;BME280;71117;52.352;4.808;2024-03-17T11:59:31;102004.19;;;13.92;65.38
81704;BME280;71117;52.352;4.808;2024-03-17T12:01:57;102002.84;;;14.12;64.09
81704;BME280;71117;52.352;4.808;2024-03-17T12:04:23;102011.97;;;14.25;64.46
81704;BME280;71117;52.352;4.808;2024-03-17T12:06:54;102004.41;;;14.43;63.97
81704;BME280;71117;52.352;4.808;2024-03-17T12:09:25;101996.75;;;14.59;63.55
81704;BME280;71117;52.352;4.808;2024-03-17T12:11:57;101989.88;;;14.70;63.37
81704;BME280;71117;52.352;4.808;2024-03-17T12:14:26;101998.03;;;14.35;63.97
81704;BME280;71117;52.352;4.808;2024-03-17T12:16:53;101994.91;;;14.14;65.02
81704;BME280;71117;52.352;4.808;2024-03-17T12:19:19;101997.09;;;14.32;65.43
81704;BME280;71117;52.352;4.808;2024-03-17T12:21:47;101996.38;;;13.98;66.49
81704;BME280;71117;52.352;4.808;2024-03-17T12:24:23;101989.44;;;13.67;67.00
81704;BME280;71117;52.352;4.808;2024-03-17T12:26:51;101994.25;;;13.45;68.61
81704;BME280;71117;52.352;4.808;2024-03-17T12:29:24;101987.88;;;13.37;68.43
81704;BME280;71117;52.352;4.808;2024-03-17T12:31:52;101987.75;;;13.33;69.94
81704;BME280;71117;52.352;4.808;2024-03-17T12:34:19;101981.97;;;13.16;70.09
81704;BME280;71117;52.352;4.808;2024-03-17T12:36:46;101977.44;;;13.12;71.36
81704;BME280;71117;52.352;4.808;2024-03-17T12:39:22;101971.03;;;13.02;70.67
81704;BME280;71117;52.352;4.808;2024-03-17T12:42:07;101971.66;;;12.92;72.69
81704;BME280;71117;52.352;4.808;2024-03-17T12:44:46;101978.59;;;12.87;75.63
81704;BME280;71117;52.352;4.808;2024-03-17T12:47:18;101975.72;;;12.46;78.73
81704;BME280;71117;52.352;4.808;2024-03-17T12:49:45;101964.44;;;12.23;82.84
81704;BME280;71117;52.352;4.808;2024-03-17T12:52:22;101962.31;;;12.10;84.77
81704;BME280;71117;52.352;4.808;2024-03-17T12:57:43;101954.78;;;11.95;84.81
81704;BME280;71117;52.352;4.808;2024-03-17T13:00:27;101946.75;;;11.90;83.98
81704;BME280;71117;52.352;4.808;2024-03-17T13:03:06;101958.31;;;11.94;83.25
81704;BME280;71117;52.352;4.808;2024-03-17T13:05:36;101952.34;;;12.01;82.58
81704;BME280;71117;52.352;4.808;2024-03-17T13:08:02;101955.84;;;12.00;81.64
81704;BME280;71117;52.352;4.808;2024-03-17T13:10:29;101943.28;;;11.93;82.10
81704;BME280;71117;52.352;4.808;2024-03-17T13:12:59;101937.25;;;11.99;81.81
81704;BME280;71117;52.352;4.808;2024-03-17T13:15:30;101939.13;;;12.01;81.22
81704;BME280;71117;52.352;4.808;2024-03-17T13:17:56;101939.28;;;12.07;81.00
81704;BME280;71117;52.352;4.808;2024-03-17T13:20:22;101934.38;;;12.21;81.54
81704;BME280;71117;52.352;4.808;2024-03-17T13:22:48;101936.31;;;12.27;80.28
81704;BME280;71117;52.352;4.808;2024-03-17T13:25:15;101925.38;;;12.46;80.10
81704;BME280;71117;52.352;4.808;2024-03-17T13:27:42;101913.31;;;12.57;79.87